Time;durP1;ratioP1;P1;durP2;ratioP2;P2;SDS_P1;SDS_P2;PMS_P1;PMS_P2;Temp;Humidity;BMP_temperature;BMP_pressure;BME280_temperature;BME280_humidity;BME280_pressure;Samples;Min_cycle;Max_cycle;Signal;HPM_P1;HPM_P2
2023/09/05 00:02:01;;;;;;;4.18;3.88;;;;;;;;;;4969552;28;99596;-73
2023/09/05 00:04:28;;;;;;;5.03;4.20;;;;;;;;;;4966086;28;100204;-72
2023/09/05 00:06:56;;;;;;;7.03;4.63;;;;;;;;;;4966590;28;99902;-73
2023/09/05 00:09:23;;;;;;;4.78;4.07;;;;;;;;;;4974074;28;100223;-74
2023/09/05 00:11:50;;;;;;;4.95;4.13;;;;;;;;;;4989186;28;99799;-73
2023/09/05 00:14:18;;;;;;;14.93;4.75;;;;;;;;;;4987984;28;100775;-75
2023/09/05 00:16:45;;;;;;;4.78;4.28;;;;;;;;;;4979263;28;99430;-73
2023/09/05 00:19:12;;;;;;;3.90;3.60;;;;;;;;;;4973595;28;99962;-73
2023/09/05 00:21:39;;;;;;;5.20;4.25;;;;;;;;;;4987069;28;100880;-74
2023/09/05 00:24:27;;;;;;;4.78;4.38;;;;;;;;;;4989638;28;99021;-73
2023/09/05 00:26:57;;;;;;;8.02;5.03;;;;;;;;;;4989255;28;98543;-73
2023/09/05 00:29:26;;;;;;;8.35;4.80;;;;;;;;;;4989952;28;99812;-73
2023/09/05 00:31:53;;;;;;;6.43;5.25;;;;;;;;;;4985788;28;103313;-72
2023/09/05 00:34:20;;;;;;;6.28;5.68;;;;;;;;;;4990702;28;100119;-75
2023/09/05 00:36:47;;;;;;;9.20;5.68;;;;;;;;;;4988795;28;99158;-74
2023/09/05 00:39:16;;;;;;;5.88;4.97;;;;;;;;;;4988628;28;100473;-73
2023/09/05 00:41:42;;;;;;;5.75;4.57;;;;;;;;;;4989931;28;99073;-73
2023/09/05 00:44:09;;;;;;;5.13;4.65;;;;;;;;;;4989828;28;99125;-73
2023/09/05 00:46:35;;;;;;;4.80;4.22;;;;;;;;;;4987124;28;101765;-73
2023/09/05 00:49:02;;;;;;;4.78;4.00;;;;;;;;;;4978293;28;99073;-73
2023/09/05 00:51:32;;;;;;;4.72;4.20;;;;;;;;;;4984261;28;100373;-73
2023/09/05 00:54:00;;;;;;;4.30;4.00;;;;;;;;;;4988947;28;99122;-74
2023/09/05 00:56:27;;;;;;;4.15;3.70;;;;;;;;;;4992292;28;100154;-73
2023/09/05 00:58:54;;;;;;;4.47;3.72;;;;;;;;;;4972434;28;99911;-73
2023/09/05 01:01:20;;;;;;;6.50;4.35;;;;;;;;;;4968580;28;98698;-74
2023/09/05 01:03:46;;;;;;;4.32;3.75;;;;;;;;;;4976474;28;99019;-73
2023/09/05 01:06:22;;;;;;;4.97;4.45;;;;;;;;;;4987390;28;101848;-73
2023/09/05 01:09:12;;;;;;;6.88;3.72;;;;;;;;;;4987891;28;99191;-72
2023/09/05 01:11:40;;;;;;;5.05;4.15;;;;;;;;;;4971864;28;101799;-73
2023/09/05 01:14:06;;;;;;;5.00;4.53;;;;;;;;;;4970137;28;98646;-73
2023/09/05 01:16:32;;;;;;;4.45;4.10;;;;;;;;;;4967940;28;99557;-73
2023/09/05 01:19:01;;;;;;;5.18;4.63;;;;;;;;;;4973383;28;99297;-73
2023/09/05 01:21:40;;;;;;;3.97;3.67;;;;;;;;;;4972396;28;100677;-73
2023/09/05 01:24:14;;;;;;;4.90;4.50;;;;;;;;;;4971705;28;100315;-74
2023/09/05 01:26:41;;;;;;;4.70;4.30;;;;;;;;;;4989198;28;98669;-73
2023/09/05 01:29:08;;;;;;;4.65;4.20;;;;;;;;;;4988358;28;99200;-73
2023/09/05 01:31:35;;;;;;;4.82;4.38;;;;;;;;;;4989078;28;99102;-73
2023/09/05 01:34:01;;;;;;;6.28;4.03;;;;;;;;;;4988105;28;99455;-73
2023/09/05 01:36:28;;;;;;;6.00;4.57;;;;;;;;;;4981200;28;100065;-72
2023/09/05 01:38:55;;;;;;;4.43;4.07;;;;;;;;;;4982722;28;100148;-74
2023/09/05 01:41:22;;;;;;;4.60;4.30;;;;;;;;;;4987040;28;100692;-73
2023/09/05 01:43:48;;;;;;;4.55;3.97;;;;;;;;;;4986753;28;101801;-74
2023/09/05 01:46:15;;;;;;;6.15;4.03;;;;;;;;;;4988028;28;99383;-73
2023/09/05 01:48:42;;;;;;;4.68;4.30;;;;;;;;;;4988702;28;99456;-73
2023/09/05 01:51:09;;;;;;;4.43;4.10;;;;;;;;;;4985470;28;100234;-72
2023/09/05 01:53:35;;;;;;;4.38;4.07;;;;;;;;;;4979044;28;98772;-74
2023/09/05 01:56:02;;;;;;;4.50;4.18;;;;;;;;;;4987694;28;98992;-73
2023/09/05 01:58:29;;;;;;;4.57;4.28;;;;;;;;;;4985965;28;101899;-73
2023/09/05 02:00:56;;;;;;;4.00;3.80;;;;;;;;;;4990084;28;101289;-72
2023/09/05 02:03:22;;;;;;;4.43;4.13;;;;;;;;;;4986638;28;99537;-73
2023/09/05 02:05:49;;;;;;;4.93;4.43;;;;;;;;;;4987459;28;101092;-74
2023/09/05 02:08:15;;;;;;;4.38;4.07;;;;;;;;;;4983491;28;99861;-73
2023/09/05 02:10:44;;;;;;;4.95;4.13;;;;;;;;;;4967279;28;99887;-73
2023/09/05 02:13:12;;;;;;;4.55;4.15;;;;;;;;;;4967236;28;99248;-73
2023/09/05 02:15:39;;;;;;;4.40;3.85;;;;;;;;;;4967982;28;98901;-74
2023/09/05 02:18:10;;;;;;;6.53;4.82;;;;;;;;;;4966366;28;100159;-74
2023/09/05 02:20:38;;;;;;;4.68;4.28;;;;;;;;;;4967272;28;100140;-73
2023/09/05 02:23:04;;;;;;;4.45;4.10;;;;;;;;;;4988527;28;100274;-73
2023/09/05 02:25:31;;;;;;;4.82;4.40;;;;;;;;;;4973484;28;99721;-74
2023/09/05 02:27:58;;;;;;;8.18;4.13;;;;;;;;;;4968560;28;99825;-73
2023/09/05 02:30:25;;;;;;;9.38;4.45;;;;;;;;;;4981694;28;101807;-73
2023/09/05 02:32:52;;;;;;;4.88;4.45;;;;;;;;;;4985514;28;99958;-73
2023/09/05 02:35:21;;;;;;;4.53;4.13;;;;;;;;;;4987348;28;100216;-74
2023/09/05 02:37:52;;;;;;;6.68;4.40;;;;;;;;;;4986161;28;99659;-73
2023/09/05 02:40:18;;;;;;;15.32;4.60;;;;;;;;;;4980322;28;101772;-73
2023/09/05 02:42:45;;;;;;;6.20;4.97;;;;;;;;;;4968388;28;98700;-74
2023/09/05 02:45:12;;;;;;;4.60;4.25;;;;;;;;;;4971592;28;99674;-73
2023/09/05 02:47:39;;;;;;;8.50;4.60;;;;;;;;;;4967264;28;99189;-73
2023/09/05 02:50:06;;;;;;;6.55;4.15;;;;;;;;;;4968173;28;99091;-74
2023/09/05 02:52:33;;;;;;;4.45;4.03;;;;;;;;;;4968265;28;98926;-73
2023/09/05 02:55:13;;;;;;;6.22;4.75;;;;;;;;;;4970079;28;100022;-73
2023/09/05 02:57:39;;;;;;;7.20;4.70;;;;;;;;;;4972710;28;99018;-73
2023/09/05 03:00:07;;;;;;;5.30;4.75;;;;;;;;;;4981828;28;99253;-74
2023/09/05 03:02:35;;;;;;;5.25;4.50;;;;;;;;;;4986541;28;99613;-74
2023/09/05 03:05:02;;;;;;;4.35;3.95;;;;;;;;;;4987821;28;99271;-73
2023/09/05 03:07:29;;;;;;;5.53;5.03;;;;;;;;;;4989049;28;98803;-73
2023/09/05 03:09:55;;;;;;;15.00;4.68;;;;;;;;;;4986097;28;102020;-74
2023/09/05 03:12:23;;;;;;;5.68;5.07;;;;;;;;;;4973020;28;100688;-73
2023/09/05 03:14:49;;;;;;;11.35;4.90;;;;;;;;;;4966871;28;100430;-73
2023/09/05 03:17:16;;;;;;;5.65;4.90;;;;;;;;;;4970948;28;101485;-72
2023/09/05 03:19:43;;;;;;;4.57;4.07;;;;;;;;;;4973681;28;98720;-71
2023/09/05 03:22:10;;;;;;;6.63;4.72;;;;;;;;;;4976871;28;100321;-74
2023/09/05 03:24:36;;;;;;;7.38;4.15;;;;;;;;;;4974246;28;99742;-73
2023/09/05 03:27:03;;;;;;;4.13;3.83;;;;;;;;;;4971256;28;98758;-73
2023/09/05 03:29:29;;;;;;;4.57;4.13;;;;;;;;;;4976241;28;100135;-72
2023/09/05 03:31:56;;;;;;;4.82;4.38;;;;;;;;;;4975542;28;101767;-73
2023/09/05 03:34:23;;;;;;;7.38;4.20;;;;;;;;;;4970222;28;102231;-74
2023/09/05 03:36:50;;;;;;;5.25;4.43;;;;;;;;;;4967284;28;100890;-73
2023/09/05 03:39:17;;;;;;;4.85;3.95;;;;;;;;;;4972802;28;100511;-73
2023/09/05 03:41:44;;;;;;;6.00;4.57;;;;;;;;;;4975712;28;99345;-72
2023/09/05 03:44:10;;;;;;;4.22;3.92;;;;;;;;;;4972509;28;99748;-74
2023/09/05 03:46:36;;;;;;;7.03;4.05;;;;;;;;;;4971017;28;99724;-73
2023/09/05 03:49:03;;;;;;;4.72;4.28;;;;;;;;;;4976546;28;100822;-73
2023/09/05 03:51:32;;;;;;;6.97;4.40;;;;;;;;;;4970521;28;100865;-75
2023/09/05 03:53:59;;;;;;;4.85;4.05;;;;;;;;;;4967973;28;101163;-73
2023/09/05 03:56:25;;;;;;;5.03;4.28;;;;;;;;;;4973705;28;101785;-73
2023/09/05 03:58:53;;;;;;;4.75;4.35;;;;;;;;;;4973456;28;98767;-73
2023/09/05 04:01:19;;;;;;;8.82;4.22;;;;;;;;;;4971738;28;101555;-73
2023/09/05 04:03:46;;;;;;;4.60;4.20;;;;;;;;;;4970082;28;99077;-73
2023/09/05 04:06:13;;;;;;;4.95;4.55;;;;;;;;;;4973758;28;99924;-73
2023/09/05 04:08:39;;;;;;;5.28;4.65;;;;;;;;;;4973468;28;100259;-73
2023/09/05 04:11:06;;;;;;;3.90;3.70;;;;;;;;;;4975314;28;99786;-72
2023/09/05 04:13:33;;;;;;;5.40;4.20;;;;;;;;;;4968936;28;101595;-74
2023/09/05 04:16:05;;;;;;;4.90;4.50;;;;;;;;;;4973134;28;99696;-73
2023/09/05 04:18:32;;;;;;;5.30;4.53;;;;;;;;;;4972203;28;100290;-74
2023/09/05 04:20:58;;;;;;;4.30;4.00;;;;;;;;;;4973077;28;99135;-74
2023/09/05 04:23:26;;;;;;;5.68;4.78;;;;;;;;;;4970191;28;100365;-73
2023/09/05 04:25:57;;;;;;;5.32;4.60;;;;;;;;;;4971757;28;99073;-73
2023/09/05 04:28:24;;;;;;;6.30;4.82;;;;;;;;;;4970744;28;99922;-73
2023/09/05 04:30:51;;;;;;;9.10;4.93;;;;;;;;;;4973197;28;100816;-73
2023/09/05 04:33:17;;;;;;;5.13;4.60;;;;;;;;;;4975792;28;100611;-73
2023/09/05 04:35:44;;;;;;;6.90;4.55;;;;;;;;;;4971439;28;99509;-72
2023/09/05 04:38:10;;;;;;;5.10;4.05;;;;;;;;;;4970897;28;101888;-74
2023/09/05 04:40:37;;;;;;;4.82;4.40;;;;;;;;;;4974469;28;100448;-73
2023/09/05 04:43:03;;;;;;;4.40;4.10;;;;;;;;;;4970911;28;100435;-73
2023/09/05 04:45:30;;;;;;;4.95;4.53;;;;;;;;;;4972853;28;99786;-74
2023/09/05 04:47:56;;;;;;;4.43;4.13;;;;;;;;;;4974763;28;99876;-73
2023/09/05 04:50:24;;;;;;;15.88;4.15;;;;;;;;;;4969633;28;100383;-73
2023/09/05 04:52:50;;;;;;;4.55;4.15;;;;;;;;;;4971625;28;100382;-73
2023/09/05 04:55:17;;;;;;;3.60;3.30;;;;;;;;;;4978582;28;99519;-73
2023/09/05 04:57:43;;;;;;;4.10;3.80;;;;;;;;;;4973590;28;99948;-75
2023/09/05 05:00:13;;;;;;;4.03;3.63;;;;;;;;;;4974889;28;100116;-73
2023/09/05 05:02:40;;;;;;;4.22;3.92;;;;;;;;;;4973708;28;100992;-73
2023/09/05 05:05:06;;;;;;;4.35;3.88;;;;;;;;;;4976299;28;100204;-73
2023/09/05 05:07:33;;;;;;;4.78;4.30;;;;;;;;;;4973784;28;100273;-73
2023/09/05 05:09:59;;;;;;;4.07;3.67;;;;;;;;;;4976864;28;99667;-73
2023/09/05 05:12:26;;;;;;;4.57;3.22;;;;;;;;;;4978289;28;99111;-73
2023/09/05 05:14:52;;;;;;;3.88;3.58;;;;;;;;;;4979085;28;99965;-72
2023/09/05 05:17:19;;;;;;;6.10;3.53;;;;;;;;;;4977987;28;100318;-72
2023/09/05 05:19:45;;;;;;;4.47;3.67;;;;;;;;;;4973898;28;100490;-73
2023/09/05 05:22:14;;;;;;;5.20;3.47;;;;;;;;;;4979012;28;99765;-73
2023/09/05 05:24:40;;;;;;;7.57;3.83;;;;;;;;;;4976074;28;100309;-74
2023/09/05 05:27:07;;;;;;;3.85;3.50;;;;;;;;;;4974268;28;99918;-74
2023/09/05 05:29:33;;;;;;;6.40;3.72;;;;;;;;;;4977258;28;99897;-74
2023/09/05 05:32:00;;;;;;;5.85;3.40;;;;;;;;;;4978274;28;100417;-74
2023/09/05 05:34:29;;;;;;;2.88;2.67;;;;;;;;;;4974681;28;99751;-74
2023/09/05 05:36:55;;;;;;;3.53;3.33;;;;;;;;;;4974954;28;100146;-73
2023/09/05 05:39:24;;;;;;;4.57;4.15;;;;;;;;;;4977012;28;98665;-74
2023/09/05 05:41:50;;;;;;;3.53;3.22;;;;;;;;;;4980572;28;100570;-73
2023/09/05 05:44:16;;;;;;;3.72;3.42;;;;;;;;;;4973072;28;99847;-74
2023/09/05 05:46:43;;;;;;;3.33;3.08;;;;;;;;;;4974808;28;98570;-74
2023/09/05 05:49:10;;;;;;;4.20;2.75;;;;;;;;;;4973917;28;100124;-74
2023/09/05 05:51:37;;;;;;;3.17;2.80;;;;;;;;;;4980287;28;101573;-73
2023/09/05 05:54:03;;;;;;;3.60;2.80;;;;;;;;;;4977765;28;100572;-73
2023/09/05 05:56:30;;;;;;;4.68;3.08;;;;;;;;;;4975543;28;100157;-74
2023/09/05 05:58:56;;;;;;;3.83;3.53;;;;;;;;;;4981745;28;99896;-73
2023/09/05 06:01:23;;;;;;;3.80;3.40;;;;;;;;;;4984205;28;100163;-73
2023/09/05 06:03:49;;;;;;;9.35;3.42;;;;;;;;;;4987769;28;99121;-73
2023/09/05 06:06:16;;;;;;;3.60;3.20;;;;;;;;;;4987792;28;100148;-73
2023/09/05 06:08:43;;;;;;;4.38;3.42;;;;;;;;;;4987636;28;99681;-73
2023/09/05 06:11:09;;;;;;;4.53;3.47;;;;;;;;;;4987550;28;99976;-74
2023/09/05 06:13:36;;;;;;;3.38;3.00;;;;;;;;;;4987140;28;100093;-74
2023/09/05 06:16:02;;;;;;;3.45;3.13;;;;;;;;;;4986019;28;101457;-73
2023/09/05 06:18:29;;;;;;;3.03;2.83;;;;;;;;;;4988436;28;98958;-73
2023/09/05 06:20:55;;;;;;;11.35;3.50;;;;;;;;;;4989363;28;99046;-73
2023/09/05 06:23:22;;;;;;;4.55;3.05;;;;;;;;;;4974349;28;99944;-72
2023/09/05 06:25:49;;;;;;;9.50;3.53;;;;;;;;;;4974000;28;100229;-72
2023/09/05 06:28:16;;;;;;;7.18;3.05;;;;;;;;;;4981038;28;100069;-72
2023/09/05 06:30:43;;;;;;;3.20;3.00;;;;;;;;;;4976627;28;100399;-73
2023/09/05 06:33:09;;;;;;;3.75;3.33;;;;;;;;;;4977312;28;99977;-71
2023/09/05 06:35:37;;;;;;;3.83;3.38;;;;;;;;;;4982811;28;99958;-71
2023/09/05 06:38:05;;;;;;;5.28;3.50;;;;;;;;;;4982664;28;99885;-73
2023/09/05 06:40:32;;;;;;;3.58;3.10;;;;;;;;;;4987563;28;99240;-74
2023/09/05 06:42:58;;;;;;;4.68;2.83;;;;;;;;;;4991632;28;99542;-72
2023/09/05 06:45:26;;;;;;;4.32;2.95;;;;;;;;;;4985822;28;99880;-72
2023/09/05 06:47:52;;;;;;;5.18;3.00;;;;;;;;;;4987094;28;99106;-73
2023/09/05 06:50:19;;;;;;;4.13;2.53;;;;;;;;;;4987608;28;98869;-70
2023/09/05 06:52:48;;;;;;;3.08;2.75;;;;;;;;;;4987114;28;99893;-71
2023/09/05 06:55:14;;;;;;;3.35;3.05;;;;;;;;;;4987675;28;99646;-72
2023/09/05 06:57:41;;;;;;;7.47;3.50;;;;;;;;;;4976246;28;99982;-73
2023/09/05 07:00:08;;;;;;;7.72;3.28;;;;;;;;;;4985379;28;99149;-70
2023/09/05 07:02:34;;;;;;;10.25;3.03;;;;;;;;;;4986495;28;99224;-71
2023/09/05 07:05:01;;;;;;;4.30;3.03;;;;;;;;;;4991185;28;100187;-71
2023/09/05 07:07:28;;;;;;;6.43;3.33;;;;;;;;;;4985417;28;100378;-70
2023/09/05 07:09:54;;;;;;;4.35;3.30;;;;;;;;;;4987637;28;99103;-71
2023/09/05 07:12:21;;;;;;;6.65;4.13;;;;;;;;;;4987086;28;99211;-70
2023/09/05 07:14:48;;;;;;;11.02;3.67;;;;;;;;;;4983653;28;100837;-71
2023/09/05 07:17:14;;;;;;;3.05;2.75;;;;;;;;;;4986923;28;99936;-72
2023/09/05 07:19:41;;;;;;;4.43;2.88;;;;;;;;;;4987389;28;98944;-72
2023/09/05 07:22:07;;;;;;;5.60;3.05;;;;;;;;;;4987187;28;99472;-72
2023/09/05 07:24:34;;;;;;;7.03;3.42;;;;;;;;;;4986476;28;99834;-72
2023/09/05 07:27:00;;;;;;;4.28;2.80;;;;;;;;;;4990105;28;99068;-72
2023/09/05 07:29:27;;;;;;;6.72;3.13;;;;;;;;;;4983088;28;100396;-73
2023/09/05 07:31:53;;;;;;;2.58;2.47;;;;;;;;;;4970894;28;100581;-73
2023/09/05 07:34:20;;;;;;;7.55;2.58;;;;;;;;;;4967344;28;99472;-72
2023/09/05 07:36:47;;;;;;;3.85;2.90;;;;;;;;;;4968576;28;98658;-72
2023/09/05 07:39:13;;;;;;;3.30;2.58;;;;;;;;;;4966977;28;99900;-72
2023/09/05 07:41:40;;;;;;;4.28;2.65;;;;;;;;;;4974778;28;99540;-74
2023/09/05 07:44:07;;;;;;;2.65;2.17;;;;;;;;;;4987216;28;99024;-74
2023/09/05 07:46:33;;;;;;;2.90;2.33;;;;;;;;;;4987461;28;100203;-73
2023/09/05 07:49:01;;;;;;;3.05;2.63;;;;;;;;;;4966650;28;99953;-73
2023/09/05 07:51:29;;;;;;;2.40;2.20;;;;;;;;;;4966741;28;99858;-72
2023/09/05 07:54:03;;;;;;;9.98;2.10;;;;;;;;;;4966272;28;100872;-73
2023/09/05 07:56:30;;;;;;;2.92;2.22;;;;;;;;;;4965969;28;100443;-73
2023/09/05 07:58:56;;;;;;;3.05;2.28;;;;;;;;;;4967469;28;98906;-73
2023/09/05 08:01:23;;;;;;;2.35;1.98;;;;;;;;;;4969643;28;99278;-72
2023/09/05 08:03:50;;;;;;;6.28;2.70;;;;;;;;;;4986115;28;99044;-73
2023/09/05 08:06:17;;;;;;;3.63;1.85;;;;;;;;;;4986333;28;98952;-73
2023/09/05 08:08:44;;;;;;;1.77;1.60;;;;;;;;;;4990007;28;100304;-72
2023/09/05 08:11:10;;;;;;;2.00;1.90;;;;;;;;;;4983984;28;99943;-70
2023/09/05 08:13:36;;;;;;;2.45;2.00;;;;;;;;;;4986201;28;101070;-73
2023/09/05 08:16:03;;;;;;;2.15;2.05;;;;;;;;;;4972209;28;100319;-72
2023/09/05 08:18:30;;;;;;;1.80;1.70;;;;;;;;;;4975311;28;99585;-74
2023/09/05 08:20:57;;;;;;;5.80;2.13;;;;;;;;;;4972367;28;100157;-71
2023/09/05 08:23:24;;;;;;;2.17;2.08;;;;;;;;;;4978285;28;100145;-72
2023/09/05 08:25:51;;;;;;;2.05;1.75;;;;;;;;;;4967084;28;100144;-73
2023/09/05 08:28:18;;;;;;;5.32;2.10;;;;;;;;;;4968010;28;100631;-72
2023/09/05 08:30:45;;;;;;;2.22;1.70;;;;;;;;;;4971973;28;99992;-72
2023/09/05 08:33:11;;;;;;;3.42;1.83;;;;;;;;;;4968873;28;99160;-72
2023/09/05 08:35:38;;;;;;;4.07;1.73;;;;;;;;;;4969689;28;99103;-72
2023/09/05 08:38:05;;;;;;;3.65;1.75;;;;;;;;;;4971079;28;100317;-73
2023/09/05 08:40:33;;;;;;;6.63;2.05;;;;;;;;;;4973365;28;99956;-72
2023/09/05 08:43:00;;;;;;;3.13;1.70;;;;;;;;;;4971519;28;101632;-72
2023/09/05 08:45:29;;;;;;;2.22;1.90;;;;;;;;;;4972863;28;100100;-73
2023/09/05 08:47:55;;;;;;;2.35;1.83;;;;;;;;;;4981745;28;100356;-73
2023/09/05 08:50:26;;;;;;;5.30;1.90;;;;;;;;;;4985903;28;100229;-72
2023/09/05 08:52:55;;;;;;;1.90;1.80;;;;;;;;;;4991979;28;99838;-72
2023/09/05 08:55:22;;;;;;;3.38;1.80;;;;;;;;;;4975086;28;100495;-73
2023/09/05 08:57:49;;;;;;;9.23;1.83;;;;;;;;;;4968120;28;99879;-72
2023/09/05 09:00:21;;;;;;;2.20;1.90;;;;;;;;;;4973226;28;99551;-73
2023/09/05 09:02:48;;;;;;;2.88;1.98;;;;;;;;;;4978243;28;100063;-73
2023/09/05 09:05:15;;;;;;;7.13;2.25;;;;;;;;;;4981437;28;99893;-72
2023/09/05 09:07:41;;;;;;;7.47;2.10;;;;;;;;;;4974360;28;100958;-73
2023/09/05 09:10:18;;;;;;;2.22;2.00;;;;;;;;;;4969431;28;99389;-73
2023/09/05 09:12:44;;;;;;;3.15;1.52;;;;;;;;;;4968819;28;100189;-72
2023/09/05 09:15:12;;;;;;;4.68;1.70;;;;;;;;;;4971926;28;100261;-72
2023/09/05 09:17:42;;;;;;;5.25;2.13;;;;;;;;;;4969602;28;99797;-72
2023/09/05 09:20:12;;;;;;;7.10;2.05;;;;;;;;;;4968672;28;100237;-72
2023/09/05 09:22:39;;;;;;;4.22;1.67;;;;;;;;;;4969384;28;99849;-71
2023/09/05 09:25:14;;;;;;;2.78;2.20;;;;;;;;;;4969690;28;99952;-73
2023/09/05 09:27:42;;;;;;;6.85;2.05;;;;;;;;;;4967580;28;100421;-72
2023/09/05 09:30:09;;;;;;;2.08;1.92;;;;;;;;;;4972197;28;99577;-72
2023/09/05 09:32:36;;;;;;;2.00;1.80;;;;;;;;;;4987621;28;99942;-72
2023/09/05 09:35:06;;;;;;;5.38;2.17;;;;;;;;;;4988182;28;100169;-72
2023/09/05 09:37:33;;;;;;;2.75;2.22;;;;;;;;;;4991874;28;100072;-72
2023/09/05 09:40:00;;;;;;;3.20;2.05;;;;;;;;;;4977741;28;100568;-71
2023/09/05 09:42:28;;;;;;;3.85;2.05;;;;;;;;;;4972725;28;99437;-73
2023/09/05 09:44:54;;;;;;;4.95;1.98;;;;;;;;;;4979838;28;99863;-73
2023/09/05 09:47:23;;;;;;;1.98;1.88;;;;;;;;;;4983345;28;99128;-73
2023/09/05 09:49:51;;;;;;;6.25;1.80;;;;;;;;;;4969469;28;98979;-70
2023/09/05 09:52:21;;;;;;;2.58;2.10;;;;;;;;;;4973515;28;99915;-71
2023/09/05 09:54:50;;;;;;;2.70;2.03;;;;;;;;;;4973218;28;99157;-72
2023/09/05 09:57:38;;;;;;;3.55;1.73;;;;;;;;;;4987910;28;99846;-71
2023/09/05 10:00:15;;;;;;;3.85;1.95;;;;;;;;;;4968609;28;100193;-71
2023/09/05 10:02:43;;;;;;;3.03;2.67;;;;;;;;;;4982680;28;100151;-72
2023/09/05 10:05:11;;;;;;;2.17;1.98;;;;;;;;;;4987149;28;98907;-72
2023/09/05 10:07:38;;;;;;;3.63;2.13;;;;;;;;;;4977945;28;100998;-74
2023/09/05 10:10:05;;;;;;;3.40;1.95;;;;;;;;;;4986576;28;100272;-73
2023/09/05 10:12:31;;;;;;;2.00;1.90;;;;;;;;;;4987873;28;100737;-71
2023/09/05 10:15:02;;;;;;;2.67;1.95;;;;;;;;;;4995292;28;98766;-73
2023/09/05 10:17:29;;;;;;;2.45;1.83;;;;;;;;;;5007525;28;99811;-73
2023/09/05 10:19:57;;;;;;;2.17;1.85;;;;;;;;;;4998605;28;99769;-73
2023/09/05 10:22:23;;;;;;;3.22;2.30;;;;;;;;;;4987613;28;99195;-72
2023/09/05 10:24:50;;;;;;;3.58;2.20;;;;;;;;;;4987379;28;100591;-72
2023/09/05 10:27:17;;;;;;;2.45;2.00;;;;;;;;;;4988282;28;99339;-72
2023/09/05 10:29:45;;;;;;;5.40;1.98;;;;;;;;;;4988208;28;99817;-72
2023/09/05 10:32:18;;;;;;;2.67;1.85;;;;;;;;;;4987095;28;100068;-72
2023/09/05 10:34:48;;;;;;;3.03;1.95;;;;;;;;;;4988138;28;100259;-72
2023/09/05 10:37:15;;;;;;;2.17;1.95;;;;;;;;;;4986968;28;99943;-72
2023/09/05 10:39:48;;;;;;;5.88;1.95;;;;;;;;;;4988162;28;99924;-73
2023/09/05 10:42:15;;;;;;;7.55;2.33;;;;;;;;;;4990746;28;100163;-72
2023/09/05 10:44:45;;;;;;;5.72;1.52;;;;;;;;;;4987258;28;99932;-72
2023/09/05 10:47:33;;;;;;;2.88;2.10;;;;;;;;;;4987148;28;100956;-72
2023/09/05 10:50:02;;;;;;;3.38;2.10;;;;;;;;;;4987291;28;100068;-72
2023/09/05 10:52:29;;;;;;;2.40;2.15;;;;;;;;;;4986702;28;98891;-72
2023/09/05 10:54:56;;;;;;;2.90;1.63;;;;;;;;;;4989133;28;100190;-72
2023/09/05 10:57:39;;;;;;;2.97;1.92;;;;;;;;;;4989246;28;99955;-72
2023/09/05 11:00:15;;;;;;;4.28;1.95;;;;;;;;;;4987796;28;99873;-72
2023/09/05 11:02:43;;;;;;;2.10;1.90;;;;;;;;;;4989294;28;101179;-72
2023/09/05 11:05:11;;;;;;;3.75;1.80;;;;;;;;;;4991549;28;99919;-73
2023/09/05 11:07:42;;;;;;;2.10;2.00;;;;;;;;;;4987268;28;100412;-72
2023/09/05 11:10:28;;;;;;;2.92;1.75;;;;;;;;;;4987055;28;100304;-72
2023/09/05 11:12:55;;;;;;;8.32;1.90;;;;;;;;;;4983608;28;99223;-71
2023/09/05 11:15:31;;;;;;;3.50;2.00;;;;;;;;;;4986612;28;99157;-73
2023/09/05 11:17:59;;;;;;;1.70;1.60;;;;;;;;;;4986866;28;99056;-74
2023/09/05 11:20:39;;;;;;;2.65;2.00;;;;;;;;;;4986411;28;98930;-73
2023/09/05 11:23:28;;;;;;;2.30;2.10;;;;;;;;;;4987288;28;100332;-71
2023/09/05 11:25:56;;;;;;;4.88;1.90;;;;;;;;;;4987173;28;98923;-73
2023/09/05 11:28:24;;;;;;;3.67;2.15;;;;;;;;;;4989859;28;99055;-73
2023/09/05 11:30:57;;;;;;;2.15;1.73;;;;;;;;;;4987741;28;100434;-72
2023/09/05 11:33:25;;;;;;;4.07;1.90;;;;;;;;;;4986319;28;99121;-72
2023/09/05 11:35:52;;;;;;;4.63;2.33;;;;;;;;;;4987308;28;100003;-72
2023/09/05 11:38:20;;;;;;;5.32;2.22;;;;;;;;;;4986250;28;99386;-72
2023/09/05 11:40:53;;;;;;;8.30;1.75;;;;;;;;;;4986076;28;100728;-72
2023/09/05 11:43:22;;;;;;;3.42;1.80;;;;;;;;;;4986415;28;99302;-73
2023/09/05 11:45:52;;;;;;;4.40;1.83;;;;;;;;;;4987121;28;100773;-72
2023/09/05 11:48:19;;;;;;;2.03;1.80;;;;;;;;;;4985925;28;100174;-72
2023/09/05 11:50:46;;;;;;;1.50;1.40;;;;;;;;;;4990224;28;100137;-72
2023/09/05 11:53:14;;;;;;;2.28;1.80;;;;;;;;;;4969285;28;99149;-73
2023/09/05 11:55:42;;;;;;;5.50;2.15;;;;;;;;;;4966867;28;99853;-72
2023/09/05 11:58:09;;;;;;;2.22;1.60;;;;;;;;;;4967716;28;100101;-72
2023/09/05 12:00:44;;;;;;;6.57;2.30;;;;;;;;;;4966585;28;100133;-72
2023/09/05 12:03:14;;;;;;;2.45;1.40;;;;;;;;;;4967036;28;100066;-74
2023/09/05 12:05:43;;;;;;;2.15;1.65;;;;;;;;;;4974642;28;99864;-73
2023/09/05 12:08:09;;;;;;;1.50;1.40;;;;;;;;;;4977464;28;99245;-71
2023/09/05 12:10:53;;;;;;;3.53;1.70;;;;;;;;;;4972329;28;99460;-72
2023/09/05 12:13:34;;;;;;;2.22;1.55;;;;;;;;;;4973601;28;99034;-70
2023/09/05 12:16:00;;;;;;;1.65;1.35;;;;;;;;;;4970818;28;100134;-71
2023/09/05 12:18:27;;;;;;;5.15;1.60;;;;;;;;;;4976487;28;100098;-72
2023/09/05 12:20:56;;;;;;;4.25;1.70;;;;;;;;;;4973414;28;100240;-73
2023/09/05 12:23:24;;;;;;;8.13;1.98;;;;;;;;;;4975798;28;99723;-72
2023/09/05 12:25:54;;;;;;;1.58;1.48;;;;;;;;;;4971797;28;99076;-72
2023/09/05 12:28:22;;;;;;;;;;;;;;;;;;4971267;28;100870;-71
2023/09/05 12:30:49;;;;;;;3.38;1.85;;;;;;;;;;4972990;28;130148;-72
2023/09/05 12:33:16;;;;;;;2.72;1.38;;;;;;;;;;4975985;28;99871;-72
2023/09/05 12:35:44;;;;;;;6.18;1.52;;;;;;;;;;4976466;28;100467;-72
2023/09/05 12:38:10;;;;;;;3.00;1.60;;;;;;;;;;4973015;28;99871;-73
2023/09/05 12:40:37;;;;;;;6.43;1.58;;;;;;;;;;4975386;28;100423;-72
2023/09/05 12:43:04;;;;;;;1.60;1.50;;;;;;;;;;4976798;28;100072;-72
2023/09/05 12:45:32;;;;;;;4.10;1.63;;;;;;;;;;4973502;28;100056;-73
2023/09/05 12:47:59;;;;;;;4.43;1.75;;;;;;;;;;4973107;28;99367;-74
2023/09/05 12:50:32;;;;;;;3.97;1.80;;;;;;;;;;4977286;28;99501;-70
2023/09/05 12:53:02;;;;;;;1.30;1.20;;;;;;;;;;4988995;28;100116;-72
2023/09/05 12:55:31;;;;;;;4.38;1.80;;;;;;;;;;4988067;28;99813;-71
2023/09/05 12:58:06;;;;;;;2.40;2.10;;;;;;;;;;4969629;28;98915;-72
2023/09/05 13:00:34;;;;;;;4.30;1.40;;;;;;;;;;4983342;28;98959;-71
2023/09/05 13:03:02;;;;;;;1.58;1.33;;;;;;;;;;4969766;28;100199;-74
2023/09/05 13:05:30;;;;;;;12.45;1.98;;;;;;;;;;4968545;28;100018;-72
2023/09/05 13:07:58;;;;;;;2.72;1.75;;;;;;;;;;4973001;28;98949;-70
2023/09/05 13:10:25;;;;;;;8.07;1.50;;;;;;;;;;4980276;28;97944;-73
2023/09/05 13:12:51;;;;;;;2.58;1.40;;;;;;;;;;4988707;28;99884;-72
2023/09/05 13:15:18;;;;;;;3.95;1.42;;;;;;;;;;4988754;28;98941;-72
2023/09/05 13:17:45;;;;;;;4.22;1.70;;;;;;;;;;4985364;28;100869;-72
2023/09/05 13:20:18;;;;;;;7.30;1.70;;;;;;;;;;4968288;28;100589;-73
2023/09/05 13:22:48;;;;;;;4.35;1.67;;;;;;;;;;4969245;28;99208;-71
2023/09/05 13:25:16;;;;;;;4.13;1.50;;;;;;;;;;4969736;28;99010;-71
2023/09/05 13:27:44;;;;;;;1.98;1.33;;;;;;;;;;4977264;28;99876;-72
2023/09/05 13:30:11;;;;;;;3.35;1.58;;;;;;;;;;4990204;28;100213;-72
2023/09/05 13:32:38;;;;;;;2.35;1.50;;;;;;;;;;4976802;28;100252;-71
2023/09/05 13:35:05;;;;;;;3.70;1.60;;;;;;;;;;4968877;28;99882;-72
2023/09/05 13:37:33;;;;;;;5.03;1.60;;;;;;;;;;4969010;28;100094;-73
2023/09/05 13:40:03;;;;;;;2.80;1.58;;;;;;;;;;4971669;28;100236;-72
2023/09/05 13:42:30;;;;;;;9.95;1.75;;;;;;;;;;4968396;28;101577;-71
2023/09/05 13:44:57;;;;;;;5.97;1.77;;;;;;;;;;4969042;28;99012;-71
2023/09/05 13:47:23;;;;;;;2.20;1.38;;;;;;;;;;4967770;28;99976;-71
2023/09/05 13:49:50;;;;;;;6.30;1.50;;;;;;;;;;4972801;28;99585;-70
2023/09/05 13:52:16;;;;;;;2.42;1.27;;;;;;;;;;4978397;28;99423;-71
2023/09/05 13:54:43;;;;;;;4.47;1.67;;;;;;;;;;4970431;28;99872;-72
2023/09/05 13:57:10;;;;;;;2.30;1.38;;;;;;;;;;4976114;28;100452;-72
2023/09/05 13:59:36;;;;;;;2.00;1.40;;;;;;;;;;4980259;28;100135;-72
2023/09/05 14:02:03;;;;;;;6.03;1.60;;;;;;;;;;4979871;28;99199;-73
2023/09/05 14:04:30;;;;;;;3.97;1.10;;;;;;;;;;4983180;28;99907;-72
2023/09/05 14:06:57;;;;;;;1.63;1.52;;;;;;;;;;4986945;28;100129;-70
2023/09/05 14:09:24;;;;;;;2.95;1.27;;;;;;;;;;4987181;28;100478;-72
2023/09/05 14:11:51;;;;;;;1.77;1.27;;;;;;;;;;4988322;28;100164;-72
2023/09/05 14:14:21;;;;;;;3.97;1.23;;;;;;;;;;4986823;28;99897;-73
2023/09/05 14:16:53;;;;;;;5.30;1.30;;;;;;;;;;4987723;28;100430;-73
2023/09/05 14:19:20;;;;;;;1.27;1.20;;;;;;;;;;4985932;28;99791;-72
2023/09/05 14:21:46;;;;;;;6.43;1.42;;;;;;;;;;4990757;28;100069;-72
2023/09/05 14:24:13;;;;;;;5.35;1.08;;;;;;;;;;4987788;28;99885;-73
2023/09/05 14:26:40;;;;;;;4.38;1.48;;;;;;;;;;4985101;28;99154;-73
2023/09/05 14:29:07;;;;;;;4.07;1.30;;;;;;;;;;4983552;28;100172;-72
2023/09/05 14:31:36;;;;;;;3.20;1.20;;;;;;;;;;4980523;28;100423;-73
2023/09/05 14:34:02;;;;;;;3.95;1.13;;;;;;;;;;4967326;28;100524;-72
2023/09/05 14:36:29;;;;;;;5.00;1.50;;;;;;;;;;4967238;28;99369;-72
2023/09/05 14:38:56;;;;;;;1.45;0.93;;;;;;;;;;4967953;28;99924;-73
2023/09/05 14:41:30;;;;;;;1.42;1.33;;;;;;;;;;4966412;28;100017;-72